METAR Data
IDs: Format: Raw Decoded Include TAF

Data at: 1337 UTC 26 Feb 2021

ESSB 261320Z 27012KT CAVOK 09/02 Q1011 R12/15//95